sensor_id;sensor_type;location;lat;lon;timestamp;P1;durP1;ratioP1;P2;durP2;ratioP2
14665;SDS011;7420;53.574;10.040;2023-09-19T00:02:12;4.78;;;4.57;;
14665;SDS011;7420;53.574;10.040;2023-09-19T00:04:37;4.60;;;4.40;;
14665;SDS011;7420;53.574;10.040;2023-09-19T00:07:04;4.60;;;4.40;;
14665;SDS011;7420;53.574;10.040;2023-09-19T00:09:30;4.60;;;4.40;;
14665;SDS011;7420;53.574;10.040;2023-09-19T00:12:01;4.53;;;4.32;;
14665;SDS011;7420;53.574;10.040;2023-09-19T00:14:27;4.60;;;4.40;;
14665;SDS011;7420;53.574;10.040;2023-09-19T00:16:53;4.60;;;4.40;;
14665;SDS011;7420;53.574;10.040;2023-09-19T00:19:19;4.65;;;4.45;;
14665;SDS011;7420;53.574;10.040;2023-09-19T00:21:45;4.70;;;4.50;;
14665;SDS011;7420;53.574;10.040;2023-09-19T00:24:12;4.50;;;4.30;;
14665;SDS011;7420;53.574;10.040;2023-09-19T00:26:39;4.80;;;4.60;;
14665;SDS011;7420;53.574;10.040;2023-09-19T00:29:04;4.70;;;4.50;;
14665;SDS011;7420;53.574;10.040;2023-09-19T00:31:33;4.60;;;4.40;;
14665;SDS011;7420;53.574;10.040;2023-09-19T00:33:59;4.50;;;4.30;;
14665;SDS011;7420;53.574;10.040;2023-09-19T00:36:31;4.50;;;4.30;;
14665;SDS011;7420;53.574;10.040;2023-09-19T00:38:58;4.75;;;4.55;;
14665;SDS011;7420;53.574;10.040;2023-09-19T00:41:24;4.60;;;4.40;;
14665;SDS011;7420;53.574;10.040;2023-09-19T00:43:50;4.80;;;4.60;;
14665;SDS011;7420;53.574;10.040;2023-09-19T00:46:18;4.70;;;4.50;;
14665;SDS011;7420;53.574;10.040;2023-09-19T00:48:44;4.85;;;4.65;;
14665;SDS011;7420;53.574;10.040;2023-09-19T00:51:09;4.72;;;4.53;;
14665;SDS011;7420;53.574;10.040;2023-09-19T00:53:35;4.70;;;4.50;;
14665;SDS011;7420;53.574;10.040;2023-09-19T00:56:01;4.60;;;4.40;;
14665;SDS011;7420;53.574;10.040;2023-09-19T00:58:32;4.70;;;4.50;;
14665;SDS011;7420;53.574;10.040;2023-09-19T01:01:00;4.80;;;4.60;;
14665;SDS011;7420;53.574;10.040;2023-09-19T01:03:26;4.80;;;4.60;;
14665;SDS011;7420;53.574;10.040;2023-09-19T01:05:52;4.50;;;4.30;;
14665;SDS011;7420;53.574;10.040;2023-09-19T01:08:18;4.50;;;4.30;;
14665;SDS011;7420;53.574;10.040;2023-09-19T01:10:50;4.68;;;4.47;;
14665;SDS011;7420;53.574;10.040;2023-09-19T01:16:02;4.63;;;4.43;;
14665;SDS011;7420;53.574;10.040;2023-09-19T01:21:57;4.50;;;4.30;;
14665;SDS011;7420;53.574;10.040;2023-09-19T01:28:06;4.57;;;4.38;;
14665;SDS011;7420;53.574;10.040;2023-09-19T01:30:43;4.60;;;4.40;;
14665;SDS011;7420;53.574;10.040;2023-09-19T01:33:09;4.60;;;4.40;;
14665;SDS011;7420;53.574;10.040;2023-09-19T01:35:37;4.65;;;4.45;;
14665;SDS011;7420;53.574;10.040;2023-09-19T01:38:04;4.70;;;4.50;;
14665;SDS011;7420;53.574;10.040;2023-09-19T01:40:32;4.80;;;4.60;;
14665;SDS011;7420;53.574;10.040;2023-09-19T01:43:11;4.70;;;4.50;;
14665;SDS011;7420;53.574;10.040;2023-09-19T01:48:18;4.75;;;4.55;;
14665;SDS011;7420;53.574;10.040;2023-09-19T01:50:49;4.70;;;4.50;;
14665;SDS011;7420;53.574;10.040;2023-09-19T01:53:24;4.70;;;4.50;;
14665;SDS011;7420;53.574;10.040;2023-09-19T01:55:53;4.88;;;4.68;;
14665;SDS011;7420;53.574;10.040;2023-09-19T02:01:11;4.70;;;4.50;;
14665;SDS011;7420;53.574;10.040;2023-09-19T02:03:40;4.80;;;4.60;;
14665;SDS011;7420;53.574;10.040;2023-09-19T02:06:06;4.90;;;4.70;;
14665;SDS011;7420;53.574;10.040;2023-09-19T02:08:36;4.63;;;4.43;;
14665;SDS011;7420;53.574;10.040;2023-09-19T02:11:01;4.65;;;4.45;;
14665;SDS011;7420;53.574;10.040;2023-09-19T02:13:28;4.70;;;4.50;;
14665;SDS011;7420;53.574;10.040;2023-09-19T02:15:55;4.50;;;4.30;;
14665;SDS011;7420;53.574;10.040;2023-09-19T02:18:21;4.72;;;4.53;;
14665;SDS011;7420;53.574;10.040;2023-09-19T02:20:46;4.70;;;4.50;;
14665;SDS011;7420;53.574;10.040;2023-09-19T02:23:12;4.88;;;4.68;;
14665;SDS011;7420;53.574;10.040;2023-09-19T02:25:38;4.60;;;4.40;;
14665;SDS011;7420;53.574;10.040;2023-09-19T02:28:05;4.60;;;4.40;;
14665;SDS011;7420;53.574;10.040;2023-09-19T02:30:31;4.70;;;4.50;;
14665;SDS011;7420;53.574;10.040;2023-09-19T02:32:57;4.65;;;4.45;;
14665;SDS011;7420;53.574;10.040;2023-09-19T02:35:22;4.50;;;4.30;;
14665;SDS011;7420;53.574;10.040;2023-09-19T02:37:48;4.55;;;4.35;;
14665;SDS011;7420;53.574;10.040;2023-09-19T02:40:14;4.70;;;4.50;;
14665;SDS011;7420;53.574;10.040;2023-09-19T02:42:52;4.70;;;4.50;;
14665;SDS011;7420;53.574;10.040;2023-09-19T02:45:18;4.63;;;4.43;;
14665;SDS011;7420;53.574;10.040;2023-09-19T02:47:45;4.70;;;4.50;;
14665;SDS011;7420;53.574;10.040;2023-09-19T02:50:13;4.57;;;4.38;;
14665;SDS011;7420;53.574;10.040;2023-09-19T02:52:41;4.80;;;4.60;;
14665;SDS011;7420;53.574;10.040;2023-09-19T02:55:15;4.70;;;4.50;;
14665;SDS011;7420;53.574;10.040;2023-09-19T02:57:52;4.70;;;4.50;;
14665;SDS011;7420;53.574;10.040;2023-09-19T03:00:22;4.80;;;4.60;;
14665;SDS011;7420;53.574;10.040;2023-09-19T03:02:48;4.82;;;4.63;;
14665;SDS011;7420;53.574;10.040;2023-09-19T03:05:24;4.55;;;4.35;;
14665;SDS011;7420;53.574;10.040;2023-09-19T03:07:51;4.60;;;4.40;;
14665;SDS011;7420;53.574;10.040;2023-09-19T03:10:17;4.50;;;4.30;;
14665;SDS011;7420;53.574;10.040;2023-09-19T03:12:43;4.60;;;4.40;;
14665;SDS011;7420;53.574;10.040;2023-09-19T03:15:09;4.80;;;4.60;;
14665;SDS011;7420;53.574;10.040;2023-09-19T03:17:34;4.82;;;4.63;;
14665;SDS011;7420;53.574;10.040;2023-09-19T03:20:01;5.07;;;4.88;;
14665;SDS011;7420;53.574;10.040;2023-09-19T03:22:27;4.80;;;4.60;;
14665;SDS011;7420;53.574;10.040;2023-09-19T03:24:52;4.68;;;4.47;;
14665;SDS011;7420;53.574;10.040;2023-09-19T03:27:19;4.65;;;4.45;;
14665;SDS011;7420;53.574;10.040;2023-09-19T03:29:45;4.80;;;4.60;;
14665;SDS011;7420;53.574;10.040;2023-09-19T03:32:11;4.90;;;4.70;;
14665;SDS011;7420;53.574;10.040;2023-09-19T03:34:37;4.70;;;4.50;;
14665;SDS011;7420;53.574;10.040;2023-09-19T03:37:08;4.60;;;4.40;;
14665;SDS011;7420;53.574;10.040;2023-09-19T03:39:33;4.80;;;4.60;;
14665;SDS011;7420;53.574;10.040;2023-09-19T03:41:59;4.70;;;4.50;;
14665;SDS011;7420;53.574;10.040;2023-09-19T03:44:24;4.70;;;4.50;;
14665;SDS011;7420;53.574;10.040;2023-09-19T03:46:49;4.97;;;4.78;;
14665;SDS011;7420;53.574;10.040;2023-09-19T03:49:15;4.82;;;4.63;;
14665;SDS011;7420;53.574;10.040;2023-09-19T03:51:40;4.70;;;4.50;;
14665;SDS011;7420;53.574;10.040;2023-09-19T03:54:06;4.85;;;4.65;;
14665;SDS011;7420;53.574;10.040;2023-09-19T03:56:32;4.72;;;4.53;;
14665;SDS011;7420;53.574;10.040;2023-09-19T03:58:58;4.78;;;4.57;;
14665;SDS011;7420;53.574;10.040;2023-09-19T04:01:23;4.70;;;4.50;;
14665;SDS011;7420;53.574;10.040;2023-09-19T04:03:49;4.72;;;4.53;;
14665;SDS011;7420;53.574;10.040;2023-09-19T04:06:16;4.80;;;4.60;;
14665;SDS011;7420;53.574;10.040;2023-09-19T04:08:43;4.80;;;4.60;;
14665;SDS011;7420;53.574;10.040;2023-09-19T04:11:09;4.72;;;4.53;;
14665;SDS011;7420;53.574;10.040;2023-09-19T04:13:35;5.05;;;4.85;;
14665;SDS011;7420;53.574;10.040;2023-09-19T04:16:01;5.00;;;4.80;;
14665;SDS011;7420;53.574;10.040;2023-09-19T04:18:27;4.90;;;4.70;;
14665;SDS011;7420;53.574;10.040;2023-09-19T04:20:53;4.75;;;4.55;;
14665;SDS011;7420;53.574;10.040;2023-09-19T04:23:18;5.15;;;4.95;;
14665;SDS011;7420;53.574;10.040;2023-09-19T04:25:47;4.70;;;4.50;;
14665;SDS011;7420;53.574;10.040;2023-09-19T04:28:13;5.07;;;4.88;;
14665;SDS011;7420;53.574;10.040;2023-09-19T04:30:38;4.90;;;4.70;;
14665;SDS011;7420;53.574;10.040;2023-09-19T04:33:07;5.10;;;4.90;;
14665;SDS011;7420;53.574;10.040;2023-09-19T04:35:32;4.90;;;4.70;;
14665;SDS011;7420;53.574;10.040;2023-09-19T04:37:58;4.80;;;4.60;;
14665;SDS011;7420;53.574;10.040;2023-09-19T04:40:23;4.70;;;4.50;;
14665;SDS011;7420;53.574;10.040;2023-09-19T04:42:55;5.00;;;4.80;;
14665;SDS011;7420;53.574;10.040;2023-09-19T04:45:26;4.60;;;4.40;;
14665;SDS011;7420;53.574;10.040;2023-09-19T04:47:53;4.68;;;4.47;;
14665;SDS011;7420;53.574;10.040;2023-09-19T04:50:19;4.90;;;4.70;;
14665;SDS011;7420;53.574;10.040;2023-09-19T04:52:48;4.80;;;4.60;;
14665;SDS011;7420;53.574;10.040;2023-09-19T04:55:16;4.90;;;4.70;;
14665;SDS011;7420;53.574;10.040;2023-09-19T04:57:45;4.90;;;4.70;;
14665;SDS011;7420;53.574;10.040;2023-09-19T05:00:15;4.95;;;4.75;;
14665;SDS011;7420;53.574;10.040;2023-09-19T05:02:44;5.07;;;4.88;;
14665;SDS011;7420;53.574;10.040;2023-09-19T05:05:10;5.00;;;4.80;;
14665;SDS011;7420;53.574;10.040;2023-09-19T05:07:37;5.00;;;4.80;;
14665;SDS011;7420;53.574;10.040;2023-09-19T05:10:04;5.07;;;4.88;;
14665;SDS011;7420;53.574;10.040;2023-09-19T05:12:34;4.90;;;4.70;;
14665;SDS011;7420;53.574;10.040;2023-09-19T05:15:00;4.82;;;4.63;;
14665;SDS011;7420;53.574;10.040;2023-09-19T05:17:26;4.90;;;4.70;;
14665;SDS011;7420;53.574;10.040;2023-09-19T05:19:52;4.80;;;4.60;;
14665;SDS011;7420;53.574;10.040;2023-09-19T05:22:18;4.75;;;4.55;;
14665;SDS011;7420;53.574;10.040;2023-09-19T05:24:43;5.00;;;4.80;;
14665;SDS011;7420;53.574;10.040;2023-09-19T05:27:12;4.97;;;4.78;;
14665;SDS011;7420;53.574;10.040;2023-09-19T05:29:37;5.20;;;5.00;;
14665;SDS011;7420;53.574;10.040;2023-09-19T05:32:03;4.80;;;4.60;;
14665;SDS011;7420;53.574;10.040;2023-09-19T05:34:29;5.00;;;4.80;;
14665;SDS011;7420;53.574;10.040;2023-09-19T05:36:55;4.90;;;4.70;;
14665;SDS011;7420;53.574;10.040;2023-09-19T05:39:21;5.30;;;5.10;;
14665;SDS011;7420;53.574;10.040;2023-09-19T05:41:47;4.80;;;4.60;;
14665;SDS011;7420;53.574;10.040;2023-09-19T05:44:13;4.80;;;4.60;;
14665;SDS011;7420;53.574;10.040;2023-09-19T05:46:39;4.85;;;4.65;;
14665;SDS011;7420;53.574;10.040;2023-09-19T05:49:04;5.00;;;4.80;;
14665;SDS011;7420;53.574;10.040;2023-09-19T05:51:30;5.22;;;5.03;;
14665;SDS011;7420;53.574;10.040;2023-09-19T05:53:56;5.20;;;5.00;;
14665;SDS011;7420;53.574;10.040;2023-09-19T05:56:22;4.80;;;4.60;;
14665;SDS011;7420;53.574;10.040;2023-09-19T05:58:47;5.10;;;4.90;;
14665;SDS011;7420;53.574;10.040;2023-09-19T06:01:14;5.05;;;4.85;;
14665;SDS011;7420;53.574;10.040;2023-09-19T06:03:40;5.00;;;4.80;;
14665;SDS011;7420;53.574;10.040;2023-09-19T06:06:05;5.00;;;4.80;;
14665;SDS011;7420;53.574;10.040;2023-09-19T06:08:31;5.05;;;4.85;;
14665;SDS011;7420;53.574;10.040;2023-09-19T06:10:59;5.20;;;5.00;;
14665;SDS011;7420;53.574;10.040;2023-09-19T06:13:27;5.05;;;4.85;;
14665;SDS011;7420;53.574;10.040;2023-09-19T06:15:54;4.97;;;4.78;;
14665;SDS011;7420;53.574;10.040;2023-09-19T06:18:21;5.00;;;4.80;;
14665;SDS011;7420;53.574;10.040;2023-09-19T06:20:51;4.90;;;4.70;;
14665;SDS011;7420;53.574;10.040;2023-09-19T06:23:16;4.90;;;4.70;;
14665;SDS011;7420;53.574;10.040;2023-09-19T06:25:42;5.25;;;5.05;;
14665;SDS011;7420;53.574;10.040;2023-09-19T06:28:08;5.05;;;4.85;;
14665;SDS011;7420;53.574;10.040;2023-09-19T06:30:37;5.10;;;4.90;;
14665;SDS011;7420;53.574;10.040;2023-09-19T06:33:23;4.93;;;4.72;;
14665;SDS011;7420;53.574;10.040;2023-09-19T06:35:48;4.90;;;4.70;;
14665;SDS011;7420;53.574;10.040;2023-09-19T06:38:13;5.07;;;4.88;;
14665;SDS011;7420;53.574;10.040;2023-09-19T06:40:40;5.00;;;4.80;;
14665;SDS011;7420;53.574;10.040;2023-09-19T06:43:09;5.03;;;4.82;;
14665;SDS011;7420;53.574;10.040;2023-09-19T06:45:35;4.90;;;4.70;;
14665;SDS011;7420;53.574;10.040;2023-09-19T06:48:00;4.90;;;4.70;;
14665;SDS011;7420;53.574;10.040;2023-09-19T06:50:28;4.90;;;4.70;;
14665;SDS011;7420;53.574;10.040;2023-09-19T06:52:56;5.00;;;4.80;;
14665;SDS011;7420;53.574;10.040;2023-09-19T06:55:24;5.00;;;4.80;;
14665;SDS011;7420;53.574;10.040;2023-09-19T06:57:53;5.00;;;4.80;;
14665;SDS011;7420;53.574;10.040;2023-09-19T07:00:22;5.10;;;4.90;;
14665;SDS011;7420;53.574;10.040;2023-09-19T07:02:57;5.00;;;4.80;;
14665;SDS011;7420;53.574;10.040;2023-09-19T07:05:25;4.90;;;4.70;;
14665;SDS011;7420;53.574;10.040;2023-09-19T07:07:54;4.90;;;4.70;;
14665;SDS011;7420;53.574;10.040;2023-09-19T07:10:29;4.80;;;4.60;;
14665;SDS011;7420;53.574;10.040;2023-09-19T07:12:58;4.90;;;4.70;;
14665;SDS011;7420;53.574;10.040;2023-09-19T07:15:24;4.80;;;4.60;;
14665;SDS011;7420;53.574;10.040;2023-09-19T07:17:51;4.90;;;4.70;;
14665;SDS011;7420;53.574;10.040;2023-09-19T07:20:18;4.97;;;4.78;;
14665;SDS011;7420;53.574;10.040;2023-09-19T07:22:43;5.07;;;4.88;;
14665;SDS011;7420;53.574;10.040;2023-09-19T07:25:09;4.90;;;4.70;;
14665;SDS011;7420;53.574;10.040;2023-09-19T07:27:34;4.93;;;4.72;;
14665;SDS011;7420;53.574;10.040;2023-09-19T07:30:00;4.80;;;4.60;;
14665;SDS011;7420;53.574;10.040;2023-09-19T07:32:25;5.00;;;4.80;;
14665;SDS011;7420;53.574;10.040;2023-09-19T07:34:50;4.90;;;4.70;;
14665;SDS011;7420;53.574;10.040;2023-09-19T07:37:16;4.90;;;4.70;;
14665;SDS011;7420;53.574;10.040;2023-09-19T07:39:41;4.90;;;4.70;;
14665;SDS011;7420;53.574;10.040;2023-09-19T07:42:07;5.10;;;4.90;;
14665;SDS011;7420;53.574;10.040;2023-09-19T07:44:32;4.90;;;4.70;;
14665;SDS011;7420;53.574;10.040;2023-09-19T07:46:59;5.10;;;4.90;;
14665;SDS011;7420;53.574;10.040;2023-09-19T07:49:28;5.05;;;4.85;;
14665;SDS011;7420;53.574;10.040;2023-09-19T07:51:53;4.70;;;4.50;;
14665;SDS011;7420;53.574;10.040;2023-09-19T07:54:19;4.90;;;4.70;;
14665;SDS011;7420;53.574;10.040;2023-09-19T07:56:46;4.97;;;4.78;;
14665;SDS011;7420;53.574;10.040;2023-09-19T07:59:11;5.00;;;4.80;;
14665;SDS011;7420;53.574;10.040;2023-09-19T08:01:38;5.10;;;4.90;;
14665;SDS011;7420;53.574;10.040;2023-09-19T08:04:06;5.10;;;4.90;;
14665;SDS011;7420;53.574;10.040;2023-09-19T08:06:32;5.25;;;5.05;;
14665;SDS011;7420;53.574;10.040;2023-09-19T08:08:57;4.90;;;4.70;;
14665;SDS011;7420;53.574;10.040;2023-09-19T08:11:23;5.00;;;4.80;;
14665;SDS011;7420;53.574;10.040;2023-09-19T08:13:49;5.00;;;4.80;;
14665;SDS011;7420;53.574;10.040;2023-09-19T08:16:15;4.80;;;4.60;;
14665;SDS011;7420;53.574;10.040;2023-09-19T08:18:42;5.18;;;4.97;;
14665;SDS011;7420;53.574;10.040;2023-09-19T08:21:12;5.00;;;4.80;;
14665;SDS011;7420;53.574;10.040;2023-09-19T08:23:37;4.90;;;4.70;;
14665;SDS011;7420;53.574;10.040;2023-09-19T08:26:07;4.90;;;4.70;;
14665;SDS011;7420;53.574;10.040;2023-09-19T08:28:33;4.90;;;4.70;;
14665;SDS011;7420;53.574;10.040;2023-09-19T08:31:02;4.80;;;4.60;;
14665;SDS011;7420;53.574;10.040;2023-09-19T08:33:29;4.80;;;4.60;;
14665;SDS011;7420;53.574;10.040;2023-09-19T08:35:56;4.90;;;4.70;;
14665;SDS011;7420;53.574;10.040;2023-09-19T08:38:22;4.80;;;4.60;;
14665;SDS011;7420;53.574;10.040;2023-09-19T08:40:47;4.90;;;4.70;;
14665;SDS011;7420;53.574;10.040;2023-09-19T08:43:13;4.90;;;4.70;;
14665;SDS011;7420;53.574;10.040;2023-09-19T08:45:38;4.90;;;4.70;;
14665;SDS011;7420;53.574;10.040;2023-09-19T08:50:49;4.80;;;4.60;;
14665;SDS011;7420;53.574;10.040;2023-09-19T08:53:41;4.88;;;4.68;;
14665;SDS011;7420;53.574;10.040;2023-09-19T08:56:10;4.85;;;4.65;;
14665;SDS011;7420;53.574;10.040;2023-09-19T08:58:39;4.80;;;4.60;;
14665;SDS011;7420;53.574;10.040;2023-09-19T09:01:12;4.70;;;4.50;;
14665;SDS011;7420;53.574;10.040;2023-09-19T09:03:40;4.60;;;4.40;;
14665;SDS011;7420;53.574;10.040;2023-09-19T09:06:11;4.72;;;4.53;;
14665;SDS011;7420;53.574;10.040;2023-09-19T09:08:40;4.70;;;4.50;;
14665;SDS011;7420;53.574;10.040;2023-09-19T09:11:06;4.70;;;4.50;;
14665;SDS011;7420;53.574;10.040;2023-09-19T09:13:33;4.80;;;4.60;;
14665;SDS011;7420;53.574;10.040;2023-09-19T09:16:00;4.80;;;4.60;;
14665;SDS011;7420;53.574;10.040;2023-09-19T09:18:25;4.80;;;4.60;;
14665;SDS011;7420;53.574;10.040;2023-09-19T09:20:51;4.60;;;4.40;;
14665;SDS011;7420;53.574;10.040;2023-09-19T09:23:16;4.60;;;4.40;;
14665;SDS011;7420;53.574;10.040;2023-09-19T09:25:51;4.70;;;4.50;;
14665;SDS011;7420;53.574;10.040;2023-09-19T09:28:47;4.80;;;4.60;;
14665;SDS011;7420;53.574;10.040;2023-09-19T09:31:22;4.75;;;4.55;;
14665;SDS011;7420;53.574;10.040;2023-09-19T09:33:52;4.90;;;4.70;;
14665;SDS011;7420;53.574;10.040;2023-09-19T09:36:19;4.80;;;4.60;;
14665;SDS011;7420;53.574;10.040;2023-09-19T09:38:59;4.80;;;4.60;;
14665;SDS011;7420;53.574;10.040;2023-09-19T09:41:40;4.90;;;4.70;;
14665;SDS011;7420;53.574;10.040;2023-09-19T09:44:12;4.72;;;4.53;;
14665;SDS011;7420;53.574;10.040;2023-09-19T09:46:43;4.60;;;4.40;;
14665;SDS011;7420;53.574;10.040;2023-09-19T09:49:18;4.55;;;4.35;;
14665;SDS011;7420;53.574;10.040;2023-09-19T09:51:58;4.80;;;4.60;;
14665;SDS011;7420;53.574;10.040;2023-09-19T09:54:30;4.80;;;4.60;;
14665;SDS011;7420;53.574;10.040;2023-09-19T09:57:09;4.70;;;4.50;;
14665;SDS011;7420;53.574;10.040;2023-09-19T09:59:54;4.72;;;4.53;;
14665;SDS011;7420;53.574;10.040;2023-09-19T10:02:39;4.80;;;4.60;;
14665;SDS011;7420;53.574;10.040;2023-09-19T10:07:55;4.60;;;4.40;;
14665;SDS011;7420;53.574;10.040;2023-09-19T10:10:38;4.50;;;4.30;;
14665;SDS011;7420;53.574;10.040;2023-09-19T10:13:11;4.60;;;4.40;;
14665;SDS011;7420;53.574;10.040;2023-09-19T10:15:38;4.50;;;4.30;;
14665;SDS011;7420;53.574;10.040;2023-09-19T10:18:10;4.70;;;4.50;;
14665;SDS011;7420;53.574;10.040;2023-09-19T10:20:38;4.70;;;4.50;;
14665;SDS011;7420;53.574;10.040;2023-09-19T10:23:07;4.60;;;4.40;;
14665;SDS011;7420;53.574;10.040;2023-09-19T10:25:38;4.60;;;4.40;;
14665;SDS011;7420;53.574;10.040;2023-09-19T10:28:06;4.70;;;4.50;;
14665;SDS011;7420;53.574;10.040;2023-09-19T10:30:45;4.50;;;4.30;;
14665;SDS011;7420;53.574;10.040;2023-09-19T10:33:22;4.50;;;4.30;;
14665;SDS011;7420;53.574;10.040;2023-09-19T10:35:52;4.70;;;4.50;;
14665;SDS011;7420;53.574;10.040;2023-09-19T10:38:25;4.60;;;4.40;;
14665;SDS011;7420;53.574;10.040;2023-09-19T10:40:53;4.55;;;4.35;;
14665;SDS011;7420;53.574;10.040;2023-09-19T10:43:20;4.40;;;4.20;;
14665;SDS011;7420;53.574;10.040;2023-09-19T10:45:47;4.80;;;4.60;;
14665;SDS011;7420;53.574;10.040;2023-09-19T10:48:15;4.60;;;4.40;;
14665;SDS011;7420;53.574;10.040;2023-09-19T10:50:51;4.60;;;4.40;;
14665;SDS011;7420;53.574;10.040;2023-09-19T10:53:31;4.53;;;4.32;;
14665;SDS011;7420;53.574;10.040;2023-09-19T10:56:07;4.60;;;4.40;;
14665;SDS011;7420;53.574;10.040;2023-09-19T10:58:39;4.70;;;4.50;;
14665;SDS011;7420;53.574;10.040;2023-09-19T11:01:09;4.78;;;4.57;;
14665;SDS011;7420;53.574;10.040;2023-09-19T11:03:40;4.50;;;4.30;;
14665;SDS011;7420;53.574;10.040;2023-09-19T11:08:51;4.60;;;4.40;;
14665;SDS011;7420;53.574;10.040;2023-09-19T11:30:42;4.40;;;4.20;;
14665;SDS011;7420;53.574;10.040;2023-09-19T11:36:01;4.35;;;4.15;;
14665;SDS011;7420;53.574;10.040;2023-09-19T11:43:47;4.40;;;4.20;;
14665;SDS011;7420;53.574;10.040;2023-09-19T11:46:13;4.40;;;4.20;;
14665;SDS011;7420;53.574;10.040;2023-09-19T11:48:41;4.40;;;4.20;;
14665;SDS011;7420;53.574;10.040;2023-09-19T11:51:22;4.50;;;4.30;;
14665;SDS011;7420;53.574;10.040;2023-09-19T11:53:52;4.50;;;4.30;;
14665;SDS011;7420;53.574;10.040;2023-09-19T11:56:26;4.50;;;4.30;;
14665;SDS011;7420;53.574;10.040;2023-09-19T11:58:56;4.57;;;4.38;;
14665;SDS011;7420;53.574;10.040;2023-09-19T12:01:24;4.55;;;4.35;;
14665;SDS011;7420;53.574;10.040;2023-09-19T12:03:54;4.68;;;4.47;;
14665;SDS011;7420;53.574;10.040;2023-09-19T12:06:27;4.40;;;4.20;;
14665;SDS011;7420;53.574;10.040;2023-09-19T12:09:01;4.40;;;4.20;;
14665;SDS011;7420;53.574;10.040;2023-09-19T12:11:32;4.60;;;4.40;;
14665;SDS011;7420;53.574;10.040;2023-09-19T12:14:01;4.75;;;4.55;;
14665;SDS011;7420;53.574;10.040;2023-09-19T12:16:27;4.35;;;4.15;;
14665;SDS011;7420;53.574;10.040;2023-09-19T12:18:55;4.60;;;4.40;;
14665;SDS011;7420;53.574;10.040;2023-09-19T12:21:23;4.50;;;4.30;;
14665;SDS011;7420;53.574;10.040;2023-09-19T12:24:04;4.60;;;4.40;;
14665;SDS011;7420;53.574;10.040;2023-09-19T12:26:38;4.30;;;4.10;;
14665;SDS011;7420;53.574;10.040;2023-09-19T12:29:14;4.30;;;4.10;;
14665;SDS011;7420;53.574;10.040;2023-09-19T12:31:49;4.40;;;4.20;;
14665;SDS011;7420;53.574;10.040;2023-09-19T12:34:19;4.20;;;4.00;;
14665;SDS011;7420;53.574;10.040;2023-09-19T12:36:46;4.18;;;4.00;;
14665;SDS011;7420;53.574;10.040;2023-09-19T12:39:21;4.20;;;4.00;;
14665;SDS011;7420;53.574;10.040;2023-09-19T12:41:48;4.40;;;4.20;;
14665;SDS011;7420;53.574;10.040;2023-09-19T12:44:15;4.40;;;4.20;;
14665;SDS011;7420;53.574;10.040;2023-09-19T12:46:43;4.20;;;4.00;;
14665;SDS011;7420;53.574;10.040;2023-09-19T12:49:16;4.30;;;4.10;;
14665;SDS011;7420;53.574;10.040;2023-09-19T12:51:46;4.50;;;4.30;;
14665;SDS011;7420;53.574;10.040;2023-09-19T12:54:12;4.40;;;4.20;;
14665;SDS011;7420;53.574;10.040;2023-09-19T12:56:40;4.50;;;4.30;;
14665;SDS011;7420;53.574;10.040;2023-09-19T12:59:11;4.30;;;4.10;;
14665;SDS011;7420;53.574;10.040;2023-09-19T13:01:38;4.47;;;4.28;;
14665;SDS011;7420;53.574;10.040;2023-09-19T13:04:21;4.18;;;4.00;;
14665;SDS011;7420;53.574;10.040;2023-09-19T13:09:25;4.20;;;4.00;;
14665;SDS011;7420;53.574;10.040;2023-09-19T13:11:59;3.90;;;3.80;;
14665;SDS011;7420;53.574;10.040;2023-09-19T13:14:27;4.00;;;3.90;;
14665;SDS011;7420;53.574;10.040;2023-09-19T13:17:00;4.30;;;4.10;;
14665;SDS011;7420;53.574;10.040;2023-09-19T13:22:04;4.20;;;4.00;;
14665;SDS011;7420;53.574;10.040;2023-09-19T13:24:31;4.30;;;4.10;;
14665;SDS011;7420;53.574;10.040;2023-09-19T13:27:00;4.20;;;4.00;;
14665;SDS011;7420;53.574;10.040;2023-09-19T13:29:25;4.25;;;4.05;;
14665;SDS011;7420;53.574;10.040;2023-09-19T13:31:51;4.20;;;4.00;;
14665;SDS011;7420;53.574;10.040;2023-09-19T13:34:21;3.95;;;3.85;;
14665;SDS011;7420;53.574;10.040;2023-09-19T13:36:46;4.30;;;4.10;;
14665;SDS011;7420;53.574;10.040;2023-09-19T13:39:13;3.80;;;3.70;;
14665;SDS011;7420;53.574;10.040;2023-09-19T13:41:40;3.80;;;3.70;;
14665;SDS011;7420;53.574;10.040;2023-09-19T13:44:07;4.03;;;3.90;;
14665;SDS011;7420;53.574;10.040;2023-09-19T13:46:35;3.80;;;3.70;;
14665;SDS011;7420;53.574;10.040;2023-09-19T13:49:01;3.88;;;3.78;;
14665;SDS011;7420;53.574;10.040;2023-09-19T13:51:28;4.00;;;3.90;;
14665;SDS011;7420;53.574;10.040;2023-09-19T13:53:55;4.20;;;4.00;;
14665;SDS011;7420;53.574;10.040;2023-09-19T13:56:21;4.00;;;3.90;;
14665;SDS011;7420;53.574;10.040;2023-09-19T13:58:46;3.90;;;3.80;;
14665;SDS011;7420;53.574;10.040;2023-09-19T14:01:12;3.90;;;3.80;;
14665;SDS011;7420;53.574;10.040;2023-09-19T14:03:38;3.70;;;3.60;;
14665;SDS011;7420;53.574;10.040;2023-09-19T14:06:04;3.80;;;3.70;;
14665;SDS011;7420;53.574;10.040;2023-09-19T14:08:29;3.90;;;3.80;;
14665;SDS011;7420;53.574;10.040;2023-09-19T14:10:55;3.92;;;3.83;;
14665;SDS011;7420;53.574;10.040;2023-09-19T14:13:21;4.20;;;4.00;;
14665;SDS011;7420;53.574;10.040;2023-09-19T14:15:46;4.30;;;4.10;;
14665;SDS011;7420;53.574;10.040;2023-09-19T14:18:11;4.00;;;3.90;;
14665;SDS011;7420;53.574;10.040;2023-09-19T14:20:38;4.00;;;3.90;;
14665;SDS011;7420;53.574;10.040;2023-09-19T14:23:07;4.00;;;3.90;;
14665;SDS011;7420;53.574;10.040;2023-09-19T14:25:35;3.92;;;3.83;;
14665;SDS011;7420;53.574;10.040;2023-09-19T14:28:01;3.90;;;3.80;;
14665;SDS011;7420;53.574;10.040;2023-09-19T14:30:27;3.80;;;3.70;;
14665;SDS011;7420;53.574;10.040;2023-09-19T14:32:52;3.90;;;3.80;;
14665;SDS011;7420;53.574;10.040;2023-09-19T14:35:18;3.80;;;3.70;;
14665;SDS011;7420;53.574;10.040;2023-09-19T14:37:44;3.72;;;3.63;;
14665;SDS011;7420;53.574;10.040;2023-09-19T14:40:10;3.92;;;3.83;;
14665;SDS011;7420;53.574;10.040;2023-09-19T14:42:38;3.90;;;3.80;;
14665;SDS011;7420;53.574;10.040;2023-09-19T14:45:04;4.20;;;4.00;;
14665;SDS011;7420;53.574;10.040;2023-09-19T14:47:30;3.90;;;3.80;;
14665;SDS011;7420;53.574;10.040;2023-09-19T14:49:58;4.00;;;3.90;;
14665;SDS011;7420;53.574;10.040;2023-09-19T14:52:24;3.97;;;3.88;;
14665;SDS011;7420;53.574;10.040;2023-09-19T14:54:53;4.05;;;3.92;;
14665;SDS011;7420;53.574;10.040;2023-09-19T14:57:18;4.20;;;4.00;;
14665;SDS011;7420;53.574;10.040;2023-09-19T14:59:44;4.00;;;3.90;;
14665;SDS011;7420;53.574;10.040;2023-09-19T15:02:09;4.18;;;4.00;;
14665;SDS011;7420;53.574;10.040;2023-09-19T15:04:34;4.50;;;4.30;;
14665;SDS011;7420;53.574;10.040;2023-09-19T15:07:00;4.30;;;4.10;;
14665;SDS011;7420;53.574;10.040;2023-09-19T15:09:25;4.30;;;4.10;;
14665;SDS011;7420;53.574;10.040;2023-09-19T15:11:54;4.50;;;4.30;;
14665;SDS011;7420;53.574;10.040;2023-09-19T15:14:20;4.40;;;4.20;;
14665;SDS011;7420;53.574;10.040;2023-09-19T15:16:46;4.20;;;4.00;;
14665;SDS011;7420;53.574;10.040;2023-09-19T15:19:11;4.15;;;3.97;;
14665;SDS011;7420;53.574;10.040;2023-09-19T15:21:37;4.40;;;4.20;;
14665;SDS011;7420;53.574;10.040;2023-09-19T15:24:03;4.20;;;4.00;;
14665;SDS011;7420;53.574;10.040;2023-09-19T15:26:30;4.40;;;4.20;;
14665;SDS011;7420;53.574;10.040;2023-09-19T15:28:55;4.40;;;4.20;;
14665;SDS011;7420;53.574;10.040;2023-09-19T15:31:21;4.20;;;4.00;;
14665;SDS011;7420;53.574;10.040;2023-09-19T15:33:47;4.60;;;4.40;;
14665;SDS011;7420;53.574;10.040;2023-09-19T15:36:13;4.60;;;4.40;;
14665;SDS011;7420;53.574;10.040;2023-09-19T15:41:27;4.60;;;4.40;;
14665;SDS011;7420;53.574;10.040;2023-09-19T15:43:56;4.40;;;4.20;;
14665;SDS011;7420;53.574;10.040;2023-09-19T15:46:24;4.40;;;4.20;;
14665;SDS011;7420;53.574;10.040;2023-09-19T15:48:51;4.50;;;4.30;;
14665;SDS011;7420;53.574;10.040;2023-09-19T15:51:17;4.40;;;4.20;;
14665;SDS011;7420;53.574;10.040;2023-09-19T15:56:09;4.40;;;4.20;;